Time,TemperatureF,DewpointF,PressureIn,WindDirection,WindDirectionDegrees,WindSpeedMPH,WindSpeedGustMPH,Humidity,HourlyPrecipIn,Conditions,Clouds,dailyrainin,SoftwareType,DateUTC
2013-03-27 00:00:00,38.6,28.2,30.31,NNW,340,0.0,0.0,66,0.00,,,0.00,Wunderground v.1.15,2013-03-27 05:00:00,
2013-03-27 00:05:00,38.5,27.7,30.31,NNW,340,0.0,0.0,65,0.00,,,0.00,Wunderground v.1.15,2013-03-27 05:05:00,
2013-03-27 00:10:00,38.3,27.2,30.31,NNW,340,0.0,0.0,64,0.00,,,0.00,Wunderground v.1.15,2013-03-27 05:10:00,
2013-03-27 00:15:00,38.1,27.0,30.31,NNW,340,0.0,0.0,64,0.00,,,0.00,Wunderground v.1.15,2013-03-27 05:15:00,
2013-03-27 00:20:00,37.9,26.8,30.30,NNW,340,0.0,0.0,64,0.00,,,0.00,Wunderground v.1.15,2013-03-27 05:20:00,
2013-03-27 00:30:00,37.4,25.9,30.30,NNW,340,0.0,0.0,63,0.00,,,0.00,Wunderground v.1.15,2013-03-27 05:30:00,
2013-03-27 00:40:00,37.1,25.3,30.30,NNW,340,0.0,0.0,62,0.00,,,0.00,Wunderground v.1.15,2013-03-27 05:40:00,
2013-03-27 00:50:00,36.7,24.5,30.30,NNW,340,0.0,0.0,61,0.00,,,0.00,Wunderground v.1.15,2013-03-27 05:50:00,
2013-03-27 01:00:00,36.0,23.4,30.30,NNW,340,0.0,0.0,60,0.00,,,0.00,Wunderground v.1.15,2013-03-27 06:00:00,
2013-03-27 01:10:00,35.9,23.7,30.29,NNW,340,0.0,0.0,61,0.00,,,0.00,Wunderground v.1.15,2013-03-27 06:10:00,
2013-03-27 01:15:00,35.9,23.7,30.29,NNW,340,0.0,0.0,61,0.00,,,0.00,Wunderground v.1.15,2013-03-27 06:15:00,
2013-03-27 01:25:00,35.5,23.4,30.29,NNW,340,0.0,0.0,61,0.00,,,0.00,Wunderground v.1.15,2013-03-27 06:25:00,
2013-03-27 01:30:00,35.4,22.9,30.29,NNW,340,0.0,0.0,60,0.00,,,0.00,Wunderground v.1.15,2013-03-27 06:30:00,
2013-03-27 01:35:00,35.3,22.8,30.29,NNW,340,0.0,0.0,60,0.00,,,0.00,Wunderground v.1.15,2013-03-27 06:35:00,
2013-03-27 01:40:00,35.1,22.6,30.29,NNW,340,0.0,0.0,60,0.00,,,0.00,Wunderground v.1.15,2013-03-27 06:40:00,
2013-03-27 01:50:00,34.9,22.4,30.29,NNW,340,0.0,0.0,60,0.00,,,0.00,Wunderground v.1.15,2013-03-27 06:50:00,
2013-03-27 01:55:00,34.6,22.1,30.28,NNW,340,0.0,0.0,60,0.00,,,0.00,Wunderground v.1.15,2013-03-27 06:55:00,
2013-03-27 02:05:00,34.4,21.9,30.28,NNW,340,0.0,0.0,60,0.00,,,0.00,Wunderground v.1.15,2013-03-27 07:05:00,
2013-03-27 02:10:00,34.4,21.9,30.28,NNW,340,0.0,0.0,60,0.00,,,0.00,Wunderground v.1.15,2013-03-27 07:10:00,
2013-03-27 02:20:00,34.1,21.3,30.28,NNW,340,0.0,0.0,59,0.00,,,0.00,Wunderground v.1.15,2013-03-27 07:20:00,
2013-03-27 02:25:00,33.9,21.1,30.28,NNW,340,0.0,0.0,59,0.00,,,0.00,Wunderground v.1.15,2013-03-27 07:25:00,
2013-03-27 02:30:00,33.7,20.9,30.28,NNW,340,0.0,0.0,59,0.00,,,0.00,Wunderground v.1.15,2013-03-27 07:30:00,
2013-03-27 02:35:00,33.6,20.8,30.28,NNW,340,0.0,0.0,59,0.00,,,0.00,Wunderground v.1.15,2013-03-27 07:35:00,
2013-03-27 02:45:00,33.3,20.5,30.28,NNW,340,0.0,0.0,59,0.00,,,0.00,Wunderground v.1.15,2013-03-27 07:45:00,
2013-03-27 02:50:00,33.2,20.4,30.27,NNW,340,0.0,0.0,59,0.00,,,0.00,Wunderground v.1.15,2013-03-27 07:50:00,
2013-03-27 02:55:00,33.1,20.3,30.27,NNW,340,0.0,0.0,59,0.00,,,0.00,Wunderground v.1.15,2013-03-27 07:55:00,
2013-03-27 03:00:00,33.0,20.2,30.28,NNW,340,0.0,0.0,59,0.00,,,0.00,Wunderground v.1.15,2013-03-27 08:00:00,
2013-03-27 03:10:00,32.7,19.5,30.28,NNW,340,0.0,0.0,58,0.00,,,0.00,Wunderground v.1.15,2013-03-27 08:10:00,
2013-03-27 03:20:00,32.5,19.7,30.27,NNW,340,0.0,0.0,59,0.00,,,0.00,Wunderground v.1.15,2013-03-27 08:20:00,
2013-03-27 03:25:00,32.4,19.7,30.27,NNW,340,0.0,0.0,59,0.00,,,0.00,Wunderground v.1.15,2013-03-27 08:25:00,
2013-03-27 03:30:00,32.3,19.2,30.27,NNW,340,0.0,0.0,58,0.00,,,0.00,Wunderground v.1.15,2013-03-27 08:30:00,
2013-03-27 03:40:00,32.1,19.0,30.27,NNW,340,0.0,0.0,58,0.00,,,0.00,Wunderground v.1.15,2013-03-27 08:40:00,
2013-03-27 03:50:00,31.9,18.8,30.27,NNW,340,0.0,0.0,58,0.00,,,0.00,Wunderground v.1.15,2013-03-27 08:50:00,
2013-03-27 03:55:00,31.9,18.8,30.27,NNW,340,0.0,0.0,58,0.00,,,0.00,Wunderground v.1.15,2013-03-27 08:55:00,
2013-03-27 04:00:00,31.8,18.7,30.27,NNW,340,0.0,0.0,58,0.00,,,0.00,Wunderground v.1.15,2013-03-27 09:00:00,
2013-03-27 04:05:00,31.7,18.6,30.27,NNW,340,0.0,0.0,58,0.00,,,0.00,Wunderground v.1.15,2013-03-27 09:05:00,
2013-03-27 04:10:00,31.7,18.6,30.27,NNW,340,0.0,0.0,58,0.00,,,0.00,Wunderground v.1.15,2013-03-27 09:10:00,
2013-03-27 04:20:00,31.5,18.4,30.27,NNW,340,0.0,0.0,58,0.00,,,0.00,Wunderground v.1.15,2013-03-27 09:20:00,
2013-03-27 04:30:00,31.3,18.2,30.27,NNW,340,0.0,0.0,58,0.00,,,0.00,Wunderground v.1.15,2013-03-27 09:30:00,
2013-03-27 04:35:00,31.3,18.2,30.27,NNW,340,0.0,0.0,58,0.00,,,0.00,Wunderground v.1.15,2013-03-27 09:35:00,
2013-03-27 04:40:00,31.2,18.1,30.27,NNW,340,0.0,0.0,58,0.00,,,0.00,Wunderground v.1.15,2013-03-27 09:40:00,
2013-03-27 04:50:00,31.1,18.0,30.27,NNW,340,0.0,0.0,58,0.00,,,0.00,Wunderground v.1.15,2013-03-27 09:50:00,
2013-03-27 05:00:00,30.9,17.8,30.27,NNW,340,0.0,0.0,58,0.00,,,0.00,Wunderground v.1.15,2013-03-27 10:00:00,
2013-03-27 05:05:00,30.7,17.7,30.27,NNW,340,0.0,0.0,58,0.00,,,0.00,Wunderground v.1.15,2013-03-27 10:05:00,
2013-03-27 05:10:00,30.6,17.2,30.27,NNW,340,0.0,0.0,57,0.00,,,0.00,Wunderground v.1.15,2013-03-27 10:10:00,
2013-03-27 05:15:00,30.5,17.5,30.27,NNW,340,0.0,0.0,58,0.00,,,0.00,Wunderground v.1.15,2013-03-27 10:15:00,
2013-03-27 05:20:00,30.4,17.4,30.27,NNW,340,0.0,0.0,58,0.00,,,0.00,Wunderground v.1.15,2013-03-27 10:20:00,
2013-03-27 05:30:00,30.1,16.7,30.27,NNW,340,0.0,0.0,57,0.00,,,0.00,Wunderground v.1.15,2013-03-27 10:30:00,
2013-03-27 05:35:00,30.3,16.5,30.27,NNW,340,0.0,0.0,56,0.00,,,0.00,Wunderground v.1.15,2013-03-27 10:35:00,
2013-03-27 05:40:00,30.8,17.3,30.27,NNW,340,0.0,0.0,57,0.00,,,0.00,Wunderground v.1.15,2013-03-27 10:40:00,
2013-03-27 05:45:00,31.2,18.1,30.27,NNW,340,0.0,0.0,58,0.00,,,0.00,Wunderground v.1.15,2013-03-27 10:45:00,
2013-03-27 05:50:00,31.6,18.9,30.27,NNW,340,0.0,0.0,59,0.00,,,0.00,Wunderground v.1.15,2013-03-27 10:50:00,
2013-03-27 06:00:00,33.7,22.4,30.27,NNW,340,0.0,0.0,63,0.00,,,0.00,Wunderground v.1.15,2013-03-27 11:00:00,
2013-03-27 06:05:00,34.6,24.0,30.27,NNW,340,0.0,0.0,65,0.00,,,0.00,Wunderground v.1.15,2013-03-27 11:05:00,
2013-03-27 06:15:00,35.4,25.2,30.28,NNW,340,0.0,0.0,66,0.00,,,0.00,Wunderground v.1.15,2013-03-27 11:15:00,
2013-03-27 06:20:00,35.3,25.1,30.28,NNW,340,0.0,0.0,66,0.00,,,0.00,Wunderground v.1.15,2013-03-27 11:20:00,
2013-03-27 06:25:00,34.9,24.7,30.28,NNW,340,0.0,0.0,66,0.00,,,0.00,Wunderground v.1.15,2013-03-27 11:25:00,
2013-03-27 06:30:00,34.4,24.2,30.28,NNW,340,0.0,0.0,66,0.00,,,0.00,Wunderground v.1.15,2013-03-27 11:30:00,
2013-03-27 06:35:00,34.4,23.8,30.28,NNW,340,0.0,0.0,65,0.00,,,0.00,Wunderground v.1.15,2013-03-27 11:35:00,
2013-03-27 06:40:00,33.8,23.3,30.28,NNW,340,0.0,0.0,65,0.00,,,0.00,Wunderground v.1.15,2013-03-27 11:40:00,
2013-03-27 06:50:00,33.3,22.4,30.29,NNW,340,0.0,0.0,64,0.00,,,0.00,Wunderground v.1.15,2013-03-27 11:50:00,
2013-03-27 06:55:00,33.4,22.5,30.29,NNW,340,0.0,0.0,64,0.00,,,0.00,Wunderground v.1.15,2013-03-27 11:55:00,
2013-03-27 07:00:00,33.4,22.5,30.29,NNW,340,0.0,0.0,64,0.00,,,0.00,Wunderground v.1.15,2013-03-27 12:00:00,
2013-03-27 07:05:00,33.3,22.1,30.29,NNW,340,0.0,0.0,63,0.00,,,0.00,Wunderground v.1.15,2013-03-27 12:05:00,
2013-03-27 07:10:00,33.3,22.1,30.30,NNW,340,0.0,0.0,63,0.00,,,0.00,Wunderground v.1.15,2013-03-27 12:10:00,
2013-03-27 07:15:00,33.1,21.9,30.30,NNW,340,0.0,0.0,63,0.00,,,0.00,Wunderground v.1.15,2013-03-27 12:15:00,
2013-03-27 07:20:00,33.0,21.8,30.30,NNW,340,0.0,0.0,63,0.00,,,0.00,Wunderground v.1.15,2013-03-27 12:20:00,
2013-03-27 07:25:00,32.9,21.3,30.30,NNW,340,0.0,0.0,62,0.00,,,0.00,Wunderground v.1.15,2013-03-27 12:25:00,
2013-03-27 07:35:00,32.5,20.5,30.31,NNW,340,0.0,0.0,61,0.00,,,0.00,Wunderground v.1.15,2013-03-27 12:35:00,
2013-03-27 07:40:00,32.4,20.4,30.31,NNW,340,0.0,0.0,61,0.00,,,0.00,Wunderground v.1.15,2013-03-27 12:40:00,
2013-03-27 07:50:00,32.7,19.5,30.32,NNW,340,0.0,0.0,58,0.00,,,0.00,Wunderground v.1.15,2013-03-27 12:50:00,
2013-03-27 08:00:00,34.4,20.3,30.32,NNW,340,0.0,0.0,56,0.00,,,0.00,Wunderground v.1.15,2013-03-27 13:00:00,
2013-03-27 08:05:00,35.5,21.8,30.32,NNW,340,0.0,0.0,57,0.00,,,0.00,Wunderground v.1.15,2013-03-27 13:05:00,
2013-03-27 08:10:00,37.2,24.2,30.32,NNW,340,0.0,0.0,59,0.00,,,0.00,Wunderground v.1.15,2013-03-27 13:10:00,
2013-03-27 08:15:00,39.3,28.1,30.33,NNW,340,0.0,0.0,64,0.00,,,0.00,Wunderground v.1.15,2013-03-27 13:15:00,
2013-03-27 08:20:00,40.7,30.2,30.33,NNW,340,0.0,0.0,66,0.00,,,0.00,Wunderground v.1.15,2013-03-27 13:20:00,
2013-03-27 08:25:00,41.9,31.7,30.33,NNW,340,0.0,0.0,67,0.00,,,0.00,Wunderground v.1.15,2013-03-27 13:25:00,
2013-03-27 08:30:00,42.9,32.7,30.33,NNW,340,0.0,0.0,67,0.00,,,0.00,Wunderground v.1.15,2013-03-27 13:30:00,
2013-03-27 08:35:00,43.7,33.5,30.33,NNW,340,0.0,0.0,67,0.00,,,0.00,Wunderground v.1.15,2013-03-27 13:35:00,
2013-03-27 08:40:00,44.4,34.1,30.33,NNW,340,0.0,0.0,67,0.00,,,0.00,Wunderground v.1.15,2013-03-27 13:40:00,
2013-03-27 08:50:00,45.8,35.1,30.33,NNW,340,0.0,0.0,66,0.00,,,0.00,Wunderground v.1.15,2013-03-27 13:50:00,
2013-03-27 09:00:00,47.8,37.0,30.33,NNW,340,0.0,0.0,66,0.00,,,0.00,Wunderground v.1.15,2013-03-27 14:00:00,
2013-03-27 09:10:00,49.0,37.7,30.33,NNW,340,0.0,0.0,65,0.00,,,0.00,Wunderground v.1.15,2013-03-27 14:10:00,
2013-03-27 09:15:00,49.8,38.5,30.34,NNW,340,0.0,1.0,65,0.00,,,0.00,Wunderground v.1.15,2013-03-27 14:15:00,
2013-03-27 09:20:00,50.7,38.6,30.33,NNW,340,0.0,0.0,63,0.00,,,0.00,Wunderground v.1.15,2013-03-27 14:20:00,
2013-03-27 09:25:00,51.9,39.7,30.34,NNW,340,0.0,0.0,63,0.00,,,0.00,Wunderground v.1.15,2013-03-27 14:25:00,
2013-03-27 09:30:00,52.7,39.6,30.34,NNW,340,0.0,0.0,61,0.00,,,0.00,Wunderground v.1.15,2013-03-27 14:30:00,
2013-03-27 09:40:00,53.7,40.1,30.34,NNW,340,0.0,0.0,60,0.00,,,0.00,Wunderground v.1.15,2013-03-27 14:40:00,
2013-03-27 09:50:00,54.7,41.1,30.34,NNW,340,0.0,2.0,60,0.00,,,0.00,Wunderground v.1.15,2013-03-27 14:50:00,
2013-03-27 10:00:00,55.2,40.7,30.33,NNW,341,0.0,0.0,58,0.00,,,0.00,Wunderground v.1.15,2013-03-27 15:00:00,
2013-03-27 10:10:00,56.7,42.1,30.33,NNW,341,0.0,0.0,58,0.00,,,0.00,Wunderground v.1.15,2013-03-27 15:10:00,
2013-03-27 10:15:00,57.5,41.4,30.33,NNW,341,0.0,0.0,55,0.00,,,0.00,Wunderground v.1.15,2013-03-27 15:15:00,
2013-03-27 10:20:00,57.9,40.9,30.33,NNW,341,0.0,0.0,53,0.00,,,0.00,Wunderground v.1.15,2013-03-27 15:20:00,
2013-03-27 10:30:00,59.0,42.4,30.33,NNW,341,0.0,0.0,54,0.00,,,0.00,Wunderground v.1.15,2013-03-27 15:30:00,
2013-03-27 10:35:00,59.0,40.9,30.33,NNW,342,1.0,2.0,51,0.00,,,0.00,Wunderground v.1.15,2013-03-27 15:35:00,
2013-03-27 10:40:00,59.0,41.4,30.33,NNW,342,1.0,1.0,52,0.00,,,0.00,Wunderground v.1.15,2013-03-27 15:40:00,
2013-03-27 10:45:00,59.4,40.2,30.33,NNW,342,1.0,1.0,49,0.00,,,0.00,Wunderground v.1.15,2013-03-27 15:45:00,
2013-03-27 10:50:00,60.1,40.3,30.33,ENE,71,1.0,2.0,48,0.00,,,0.00,Wunderground v.1.15,2013-03-27 15:50:00,
2013-03-27 11:00:00,60.0,40.2,30.33,ENE,77,2.0,2.0,48,0.00,,,0.00,Wunderground v.1.15,2013-03-27 16:00:00,
2013-03-27 11:05:00,60.5,39.0,30.33,SSE,150,1.0,2.0,45,0.00,,,0.00,Wunderground v.1.15,2013-03-27 16:05:00,
2013-03-27 11:10:00,60.9,38.8,30.33,South,187,1.0,2.0,44,0.00,,,0.00,Wunderground v.1.15,2013-03-27 16:10:00,
2013-03-27 11:20:00,61.4,39.3,30.33,SSW,213,1.0,1.0,44,0.00,,,0.00,Wunderground v.1.15,2013-03-27 16:20:00,
2013-03-27 11:25:00,61.6,39.5,30.33,SW,216,1.0,1.0,44,0.00,,,0.00,Wunderground v.1.15,2013-03-27 16:25:00,
2013-03-27 11:30:00,61.7,38.4,30.33,ESE,123,1.0,1.0,42,0.00,,,0.00,Wunderground v.1.15,2013-03-27 16:30:00,
2013-03-27 11:35:00,61.9,39.1,30.32,South,175,0.0,1.0,43,0.00,,,0.00,Wunderground v.1.15,2013-03-27 16:35:00,
2013-03-27 11:40:00,62.2,38.8,30.32,SSW,209,1.0,1.0,42,0.00,,,0.00,Wunderground v.1.15,2013-03-27 16:40:00,
2013-03-27 11:50:00,64.1,39.9,30.32,SSW,208,0.0,0.0,41,0.00,,,0.00,Wunderground v.1.15,2013-03-27 16:50:00,
2013-03-27 12:00:00,65.9,40.9,30.32,North,360,1.0,1.0,40,0.00,,,0.00,Wunderground v.1.15,2013-03-27 17:00:00,
2013-03-27 12:05:00,65.4,39.8,30.32,SSW,197,1.0,3.0,39,0.00,,,0.00,Wunderground v.1.15,2013-03-27 17:05:00,
2013-03-27 12:15:00,64.6,42.2,30.32,SW,215,1.0,1.0,44,0.00,,,0.00,Wunderground v.1.15,2013-03-27 17:15:00,
2013-03-27 12:25:00,65.9,43.4,30.31,WSW,240,0.0,4.0,44,0.00,,,0.00,Wunderground v.1.15,2013-03-27 17:25:00,
2013-03-27 12:30:00,66.1,42.3,30.31,South,171,1.0,2.0,42,0.00,,,0.00,Wunderground v.1.15,2013-03-27 17:30:00,
2013-03-27 12:35:00,65.4,41.7,30.31,SSE,165,2.0,2.0,42,0.00,,,0.00,Wunderground v.1.15,2013-03-27 17:35:00,
2013-03-27 12:40:00,66.4,42.6,30.30,SSE,167,1.0,3.0,42,0.00,,,0.00,Wunderground v.1.15,2013-03-27 17:40:00,
2013-03-27 12:50:00,66.0,42.9,30.29,SE,146,1.0,1.0,43,0.00,,,0.00,Wunderground v.1.15,2013-03-27 17:50:00,
2013-03-27 13:00:00,66.4,43.2,30.29,NE,47,2.0,2.0,43,0.00,,,0.00,Wunderground v.1.15,2013-03-27 18:00:00,
2013-03-27 13:10:00,67.1,43.2,30.29,ESE,118,1.0,1.0,42,0.00,,,0.00,Wunderground v.1.15,2013-03-27 18:10:00,
2013-03-27 13:20:00,67.6,43.7,30.28,SSE,168,0.0,2.0,42,0.00,,,0.00,Wunderground v.1.15,2013-03-27 18:20:00,
2013-03-27 13:25:00,67.3,42.1,30.28,SSE,165,1.0,2.0,40,0.00,,,0.00,Wunderground v.1.15,2013-03-27 18:25:00,
2013-03-27 13:30:00,67.5,43.0,30.28,SSE,148,1.0,1.0,41,0.00,,,0.00,Wunderground v.1.15,2013-03-27 18:30:00,
2013-03-27 13:35:00,67.2,41.4,30.27,SW,214,1.0,1.0,39,0.00,,,0.00,Wunderground v.1.15,2013-03-27 18:35:00,
2013-03-27 13:40:00,68.0,42.1,30.27,NE,50,1.0,1.0,39,0.00,,,0.00,Wunderground v.1.15,2013-03-27 18:40:00,
2013-03-27 13:50:00,66.9,41.8,30.26,SSW,209,1.0,3.0,40,0.00,,,0.00,Wunderground v.1.15,2013-03-27 18:50:00,
2013-03-27 14:00:00,67.1,42.6,30.26,SW,229,1.0,7.0,41,0.00,,,0.00,Wunderground v.1.15,2013-03-27 19:00:00,
2013-03-27 14:05:00,67.4,42.9,30.26,SSW,210,1.0,7.0,41,0.00,,,0.00,Wunderground v.1.15,2013-03-27 19:05:00,
2013-03-27 14:10:00,68.3,44.9,30.25,SSW,203,1.0,1.0,43,0.00,,,0.00,Wunderground v.1.15,2013-03-27 19:10:00,
2013-03-27 14:20:00,69.0,43.7,30.25,East,79,0.0,0.0,40,0.00,,,0.00,Wunderground v.1.15,2013-03-27 19:20:00,
2013-03-27 14:30:00,69.2,41.8,30.24,ENE,65,0.0,0.0,37,0.00,,,0.00,Wunderground v.1.15,2013-03-27 19:30:00,
2013-03-27 14:35:00,68.8,42.1,30.24,ENE,69,0.0,0.0,38,0.00,,,0.00,Wunderground v.1.15,2013-03-27 19:35:00,
2013-03-27 14:40:00,69.0,42.3,30.24,ENE,70,0.0,0.0,38,0.00,,,0.00,Wunderground v.1.15,2013-03-27 19:40:00,
2013-03-27 14:50:00,70.1,41.9,30.24,SSW,202,0.0,0.0,36,0.00,,,0.00,Wunderground v.1.15,2013-03-27 19:50:00,
2013-03-27 14:55:00,69.1,41.7,30.23,SE,137,1.0,1.0,37,0.00,,,0.00,Wunderground v.1.15,2013-03-27 19:55:00,
2013-03-27 15:00:00,68.0,42.1,30.23,SE,129,0.0,0.0,39,0.00,,,0.00,Wunderground v.1.15,2013-03-27 20:00:00,
2013-03-27 15:10:00,68.6,42.6,30.23,SSW,194,0.0,0.0,39,0.00,,,0.00,Wunderground v.1.15,2013-03-27 20:10:00,
2013-03-27 15:20:00,69.0,41.6,30.22,SW,214,0.0,0.0,37,0.00,,,0.00,Wunderground v.1.15,2013-03-27 20:20:00,
2013-03-27 15:30:00,67.7,41.2,30.22,SW,219,1.0,3.0,38,0.00,,,0.00,Wunderground v.1.15,2013-03-27 20:30:00,
2013-03-27 15:35:00,66.9,39.8,30.22,SSE,162,1.0,3.0,37,0.00,,,0.00,Wunderground v.1.15,2013-03-27 20:35:00,
2013-03-27 15:40:00,67.9,42.0,30.21,SSW,209,1.0,1.0,39,0.00,,,0.00,Wunderground v.1.15,2013-03-27 20:40:00,
2013-03-27 15:45:00,68.7,42.1,30.21,SE,124,0.0,1.0,38,0.00,,,0.00,Wunderground v.1.15,2013-03-27 20:45:00,
2013-03-27 15:55:00,68.5,41.2,30.21,SE,131,1.0,2.0,37,0.00,,,0.00,Wunderground v.1.15,2013-03-27 20:55:00,
2013-03-27 16:00:00,67.7,41.2,30.20,SSW,198,1.0,1.0,38,0.00,,,0.00,Wunderground v.1.15,2013-03-27 21:00:00,
2013-03-27 16:05:00,68.0,41.4,30.20,SSW,198,0.0,1.0,38,0.00,,,0.00,Wunderground v.1.15,2013-03-27 21:05:00,
2013-03-27 16:10:00,68.8,41.5,30.20,SSW,196,0.0,0.0,37,0.00,,,0.00,Wunderground v.1.15,2013-03-27 21:10:00,
2013-03-27 16:20:00,68.9,42.2,30.20,SSW,213,0.0,0.0,38,0.00,,,0.00,Wunderground v.1.15,2013-03-27 21:20:00,
2013-03-27 16:30:00,68.0,40.0,30.20,SSW,210,1.0,1.0,36,0.00,,,0.00,Wunderground v.1.15,2013-03-27 21:30:00,
2013-03-27 16:35:00,67.4,40.9,30.20,SSW,209,1.0,1.0,38,0.00,,,0.00,Wunderground v.1.15,2013-03-27 21:35:00,
2013-03-27 16:40:00,67.3,40.8,30.19,SSW,204,0.0,4.0,38,0.00,,,0.00,Wunderground v.1.15,2013-03-27 21:40:00,
2013-03-27 16:50:00,66.9,41.1,30.19,SSW,211,0.0,2.0,39,0.00,,,0.00,Wunderground v.1.15,2013-03-27 21:50:00,
2013-03-27 17:00:00,66.7,40.9,30.18,South,187,0.0,0.0,39,0.00,,,0.00,Wunderground v.1.15,2013-03-27 22:00:00,
2013-03-27 17:05:00,66.7,40.9,30.18,South,186,0.0,0.0,39,0.00,,,0.00,Wunderground v.1.15,2013-03-27 22:05:00,
2013-03-27 17:15:00,66.1,41.7,30.17,South,187,0.0,0.0,41,0.00,,,0.00,Wunderground v.1.15,2013-03-27 22:15:00,
2013-03-27 17:20:00,66.1,41.7,30.17,South,186,0.0,0.0,41,0.00,,,0.00,Wunderground v.1.15,2013-03-27 22:20:00,
2013-03-27 17:30:00,65.5,41.8,30.17,SSW,193,0.0,0.0,42,0.00,,,0.00,Wunderground v.1.15,2013-03-27 22:30:00,
2013-03-27 17:35:00,65.3,41.6,30.17,SSW,209,0.0,0.0,42,0.00,,,0.00,Wunderground v.1.15,2013-03-27 22:35:00,
2013-03-27 17:40:00,65.1,40.8,30.17,SSW,209,0.0,0.0,41,0.00,,,0.00,Wunderground v.1.15,2013-03-27 22:40:00,
2013-03-27 17:45:00,65.0,41.3,30.17,ENE,74,0.0,0.0,42,0.00,,,0.00,Wunderground v.1.15,2013-03-27 22:45:00,
2013-03-27 17:55:00,64.0,41.0,30.17,SSE,164,1.0,1.0,43,0.00,,,0.00,Wunderground v.1.15,2013-03-27 22:55:00,
2013-03-27 18:00:00,63.5,41.2,30.17,SSE,163,1.0,1.0,44,0.00,,,0.00,Wunderground v.1.15,2013-03-27 23:00:00,
2013-03-27 18:05:00,63.3,41.6,30.17,SSE,163,0.0,1.0,45,0.00,,,0.00,Wunderground v.1.15,2013-03-27 23:05:00,
2013-03-27 18:10:00,62.9,41.2,30.16,SSE,163,0.0,0.0,45,0.00,,,0.00,Wunderground v.1.15,2013-03-27 23:10:00,
2013-03-27 18:20:00,62.5,41.4,30.17,SSE,163,0.0,0.0,46,0.00,,,0.00,Wunderground v.1.15,2013-03-27 23:20:00,
2013-03-27 18:30:00,62.0,41.5,30.17,SSE,163,0.0,0.0,47,0.00,,,0.00,Wunderground v.1.15,2013-03-27 23:30:00,
2013-03-27 18:35:00,61.7,41.8,30.17,SSE,163,0.0,0.0,48,0.00,,,0.00,Wunderground v.1.15,2013-03-27 23:35:00,
2013-03-27 18:40:00,61.4,42.1,30.17,SSE,163,0.0,0.0,49,0.00,,,0.00,Wunderground v.1.15,2013-03-27 23:40:00,
2013-03-27 18:50:00,60.7,42.5,30.17,SSW,206,1.0,1.0,51,0.00,,,0.00,Wunderground v.1.15,2013-03-27 23:50:00,
2013-03-27 19:00:00,59.9,42.7,30.17,South,186,0.0,0.0,53,0.00,,,0.00,Wunderground v.1.15,2013-03-28 00:00:00,
2013-03-27 19:05:00,59.6,43.4,30.17,South,186,0.0,0.0,55,0.00,,,0.00,Wunderground v.1.15,2013-03-28 00:05:00,
2013-03-27 19:10:00,59.2,44.0,30.17,South,186,0.0,0.0,57,0.00,,,0.00,Wunderground v.1.15,2013-03-28 00:10:00,
2013-03-27 19:20:00,58.6,44.3,30.17,SSW,209,0.0,0.0,59,0.00,,,0.00,Wunderground v.1.15,2013-03-28 00:20:00,
2013-03-27 19:30:00,57.7,43.9,30.17,SSW,209,0.0,0.0,60,0.00,,,0.00,Wunderground v.1.15,2013-03-28 00:30:00,
2013-03-27 19:35:00,57.4,44.1,30.17,SW,222,0.0,0.0,61,0.00,,,0.00,Wunderground v.1.15,2013-03-28 00:35:00,
2013-03-27 19:40:00,57.1,43.8,30.18,SW,223,0.0,0.0,61,0.00,,,0.00,Wunderground v.1.15,2013-03-28 00:40:00,
2013-03-27 19:50:00,56.3,43.4,30.18,SW,222,0.0,0.0,62,0.00,,,0.00,Wunderground v.1.15,2013-03-28 00:50:00,
2013-03-27 20:00:00,55.9,43.5,30.18,SW,222,0.0,0.0,63,0.00,,,0.00,Wunderground v.1.15,2013-03-28 01:00:00,
2013-03-27 20:05:00,55.6,43.6,30.18,SW,222,0.0,0.0,64,0.00,,,0.00,Wunderground v.1.15,2013-03-28 01:05:00,
2013-03-27 20:10:00,55.5,43.5,30.19,SW,222,0.0,0.0,64,0.00,,,0.00,Wunderground v.1.15,2013-03-28 01:10:00,
2013-03-27 20:20:00,55.2,43.6,30.19,SW,222,0.0,0.0,65,0.00,,,0.00,Wunderground v.1.15,2013-03-28 01:20:00,
2013-03-27 20:30:00,54.9,43.4,30.19,SW,222,0.0,0.0,65,0.00,,,0.00,Wunderground v.1.15,2013-03-28 01:30:00,
2013-03-27 20:40:00,54.4,43.3,30.20,SW,222,0.0,0.0,66,0.00,,,0.00,Wunderground v.1.15,2013-03-28 01:40:00,
2013-03-27 20:50:00,53.9,42.8,30.20,SW,222,0.0,0.0,66,0.00,,,0.00,Wunderground v.1.15,2013-03-28 01:50:00,
2013-03-27 21:00:00,53.5,42.4,30.20,SW,222,0.0,0.0,66,0.00,,,0.00,Wunderground v.1.15,2013-03-28 02:00:00,
2013-03-27 21:05:00,53.3,42.2,30.20,SW,222,0.0,0.0,66,0.00,,,0.00,Wunderground v.1.15,2013-03-28 02:05:00,
2013-03-27 21:10:00,53.1,42.0,30.21,SW,222,0.0,0.0,66,0.00,,,0.00,Wunderground v.1.15,2013-03-28 02:10:00,
2013-03-27 21:20:00,52.8,41.7,30.21,SW,222,0.0,0.0,66,0.00,,,0.00,Wunderground v.1.15,2013-03-28 02:20:00,
2013-03-27 21:30:00,52.6,41.6,30.21,SW,222,0.0,0.0,66,0.00,,,0.00,Wunderground v.1.15,2013-03-28 02:30:00,
2013-03-27 21:40:00,52.4,41.4,30.21,SW,222,0.0,0.0,66,0.00,,,0.00,Wunderground v.1.15,2013-03-28 02:40:00,
2013-03-27 21:50:00,52.1,41.1,30.21,SW,222,0.0,0.0,66,0.00,,,0.00,Wunderground v.1.15,2013-03-28 02:50:00,
2013-03-27 22:00:00,51.9,40.5,30.22,SW,222,0.0,0.0,65,0.00,,,0.00,Wunderground v.1.15,2013-03-28 03:00:00,
2013-03-27 22:10:00,51.6,40.2,30.22,SW,222,0.0,0.0,65,0.00,,,0.00,Wunderground v.1.15,2013-03-28 03:10:00,
2013-03-27 22:15:00,51.4,40.0,30.22,SW,222,0.0,0.0,65,0.00,,,0.00,Wunderground v.1.15,2013-03-28 03:15:00,
2013-03-27 22:20:00,51.3,39.9,30.22,SW,222,0.0,0.0,65,0.00,,,0.00,Wunderground v.1.15,2013-03-28 03:20:00,
2013-03-27 22:30:00,50.8,39.1,30.22,SW,222,0.0,0.0,64,0.00,,,0.00,Wunderground v.1.15,2013-03-28 03:30:00,
2013-03-27 22:35:00,50.5,38.4,30.22,SW,222,0.0,0.0,63,0.00,,,0.00,Wunderground v.1.15,2013-03-28 03:35:00,
2013-03-27 22:45:00,50.0,37.5,30.22,SW,222,0.0,0.0,62,0.00,,,0.00,Wunderground v.1.15,2013-03-28 03:45:00,
2013-03-27 22:50:00,49.7,37.2,30.22,SW,222,0.0,0.0,62,0.00,,,0.00,Wunderground v.1.15,2013-03-28 03:50:00,
2013-03-27 23:00:00,49.3,36.4,30.22,SW,222,0.0,0.0,61,0.00,,,0.00,Wunderground v.1.15,2013-03-28 04:00:00,
2013-03-27 23:05:00,49.1,35.8,30.22,SW,222,0.0,0.0,60,0.00,,,0.00,Wunderground v.1.15,2013-03-28 04:05:00,
2013-03-27 23:10:00,48.8,35.5,30.22,SW,222,0.0,0.0,60,0.00,,,0.00,Wunderground v.1.15,2013-03-28 04:10:00,
2013-03-27 23:15:00,48.5,34.8,30.22,SW,222,0.0,0.0,59,0.00,,,0.00,Wunderground v.1.15,2013-03-28 04:15:00,
2013-03-27 23:20:00,48.3,34.6,30.22,SW,222,0.0,0.0,59,0.00,,,0.00,Wunderground v.1.15,2013-03-28 04:20:00,
2013-03-27 23:25:00,48.1,34.4,30.22,SW,222,0.0,0.0,59,0.00,,,0.00,Wunderground v.1.15,2013-03-28 04:25:00,
2013-03-27 23:30:00,48.0,34.3,30.22,SW,222,0.0,0.0,59,0.00,,,0.00,Wunderground v.1.15,2013-03-28 04:30:00,
2013-03-27 23:40:00,47.8,34.2,30.21,SW,222,0.0,0.0,59,0.00,,,0.00,Wunderground v.1.15,2013-03-28 04:40:00,
2013-03-27 23:50:00,47.6,34.0,30.22,SW,222,0.0,0.0,59,0.00,,,0.00,Wunderground v.1.15,2013-03-28 04:50:00,